Search for airport 
image banner adimage banner adimage banner ad
image banner ad

3CL0 - Uc Davis Medical Center Tower Ii

Located in Sacramento, United States

ICAO - 3CL0, IATA -

Data provided by Airmate  

General information

Coordinates: N38°33'18" W121°27'20"
Elevation is 236 feet MSL.
Magnetic variation is 15° East
View others Airports in California

Operational data

Special qualification required
Current time UTC:
Current local time:
Weather at : KSAC - Sacramento Executive ( 6 km )
METAR: KSAC 231353Z 00000KT 10SM CLR 14/11 A2993 RMK AO2 SLP133 T01390111
TAF: KSAC 231120Z 2312/2412 33007KT P6SM SKC FM240300 VRB04KT P6SM FEW250
View NOTAMs / SUP AIP / TFR affecting this airport [VIEW]
Communications frequencies: [VIEW]

Runways:

Airport contact information

Address: Sacramento United States

Satellite view of 3CL0